Time;durP1;ratioP1;P1;durP2;ratioP2;P2;SDS_P1;SDS_P2;PMS_P1;PMS_P2;Temp;Humidity;BMP_temperature;BMP_pressure;BME280_temperature;BME280_humidity;BME280_pressure;Samples;Min_cycle;Max_cycle;Signal;HPM_P1;HPM_P2
2023/01/25 00:01:09;;;;;;;16.23;12.20;;;5.00;99.90;;;;;;5071361;28;20232;-79
2023/01/25 00:03:36;;;;;;;16.08;14.05;;;5.00;99.90;;;;;;5068489;28;20325;-78
2023/01/25 00:06:03;;;;;;;15.15;12.05;;;5.10;99.90;;;;;;5074519;28;20226;-78
2023/01/25 00:08:31;;;;;;;16.98;12.27;;;5.10;99.90;;;;;;5069563;28;20231;-78
2023/01/25 00:11:00;;;;;;;14.20;11.32;;;5.10;99.90;;;;;;5069877;28;20235;-78
2023/01/25 00:13:27;;;;;;;17.77;12.30;;;5.10;99.90;;;;;;5077038;28;20314;-77
2023/01/25 00:15:54;;;;;;;18.25;12.02;;;5.10;99.90;;;;;;5074484;28;20223;-78
2023/01/25 00:18:21;;;;;;;14.40;12.13;;;5.10;99.90;;;;;;5073975;28;20310;-78
2023/01/25 00:20:49;;;;;;;16.75;11.70;;;5.10;99.90;;;;;;5071578;28;20231;-77
2023/01/25 00:23:18;;;;;;;16.83;11.60;;;5.10;99.90;;;;;;5073996;28;20519;-77
2023/01/25 00:25:46;;;;;;;13.52;11.43;;;5.10;99.90;;;;;;5073780;28;20297;-77
2023/01/25 00:28:14;;;;;;;15.32;11.75;;;5.10;99.90;;;;;;5073646;28;20650;-78
2023/01/25 00:30:42;;;;;;;15.90;11.95;;;5.10;99.90;;;;;;5061495;28;20216;-78
2023/01/25 00:33:43;;;;;;;16.30;11.55;;;5.10;99.90;;;;;;5054144;28;20228;-78
2023/01/25 00:36:39;;;;;;;15.02;11.25;;;5.10;99.90;;;;;;5062909;28;20285;-79
2023/01/25 00:39:10;;;;;;;12.38;10.98;;;5.10;99.90;;;;;;5062294;28;20685;-78
2023/01/25 00:41:37;;;;;;;16.88;11.93;;;5.10;99.90;;;;;;5061717;28;20225;-79
2023/01/25 00:44:06;;;;;;;19.38;11.75;;;5.00;99.90;;;;;;5074844;28;20223;-78
2023/01/25 00:46:33;;;;;;;14.25;11.48;;;5.00;99.90;;;;;;5059482;28;20270;-78
2023/01/25 00:49:00;;;;;;;22.60;11.88;;;5.00;99.90;;;;;;5069225;28;20220;-79
2023/01/25 00:51:34;;;;;;;14.70;11.35;;;5.00;99.90;;;;;;5063186;28;20256;-77
2023/01/25 00:54:01;;;;;;;13.23;11.63;;;5.10;99.90;;;;;;5073139;28;20220;-78
2023/01/25 00:56:30;;;;;;;16.35;12.48;;;5.10;99.90;;;;;;5072959;28;20235;-80
2023/01/25 00:58:57;;;;;;;17.27;12.40;;;5.00;99.90;;;;;;5073864;28;20318;-78
2023/01/25 01:01:28;;;;;;;14.13;10.73;;;5.10;99.90;;;;;;5069314;28;20227;-77
2023/01/25 01:03:57;;;;;;;15.98;11.05;;;5.10;99.90;;;;;;5054973;28;20680;-78
2023/01/25 01:06:24;;;;;;;16.90;11.10;;;5.10;99.90;;;;;;5073254;28;20289;-78
2023/01/25 01:08:55;;;;;;;13.68;11.23;;;5.10;99.90;;;;;;5065898;28;20217;-79
2023/01/25 01:11:22;;;;;;;18.55;13.80;;;5.10;99.90;;;;;;5071865;28;20231;-79
2023/01/25 01:13:49;;;;;;;24.02;16.08;;;5.10;99.90;;;;;;5065228;28;20217;-78
2023/01/25 01:16:18;;;;;;;17.80;13.40;;;5.10;99.90;;;;;;5071013;28;20231;-78
2023/01/25 01:18:47;;;;;;;12.15;10.73;;;5.10;99.90;;;;;;5070913;28;20224;-78
2023/01/25 01:21:14;;;;;;;23.35;13.70;;;5.10;99.90;;;;;;5073334;28;20228;-78
2023/01/25 01:23:42;;;;;;;16.77;12.10;;;5.00;99.90;;;;;;5073365;28;20225;-78
2023/01/25 01:26:12;;;;;;;13.98;11.68;;;5.10;99.90;;;;;;5073332;28;20701;-78
2023/01/25 01:28:42;;;;;;;15.77;11.20;;;5.10;99.90;;;;;;5074380;28;20220;-79
2023/01/25 01:31:12;;;;;;;16.30;11.90;;;5.10;99.90;;;;;;5073702;28;20692;-78
2023/01/25 01:33:39;;;;;;;15.73;11.60;;;5.10;99.90;;;;;;5074307;28;20224;-78
2023/01/25 01:36:13;;;;;;;15.77;11.38;;;5.10;99.90;;;;;;5072594;28;20281;-78
2023/01/25 01:38:41;;;;;;;20.15;13.38;;;5.10;99.90;;;;;;5074376;28;20226;-77
2023/01/25 01:41:10;;;;;;;18.23;11.95;;;5.10;99.90;;;;;;5073479;28;20260;-77
2023/01/25 01:43:38;;;;;;;14.82;12.95;;;5.10;99.90;;;;;;5073836;28;20244;-77
2023/01/25 01:46:09;;;;;;;21.33;12.60;;;5.20;99.90;;;;;;5064010;28;20212;-77
2023/01/25 01:48:40;;;;;;;16.48;11.35;;;5.10;99.90;;;;;;5073473;28;20216;-77
2023/01/25 01:51:14;;;;;;;17.40;13.05;;;5.10;99.90;;;;;;5065090;28;20267;-77
2023/01/25 01:53:46;;;;;;;14.55;12.27;;;5.10;99.90;;;;;;5065447;28;20287;-78
2023/01/25 01:56:19;;;;;;;18.25;11.75;;;5.10;99.90;;;;;;5076398;28;20302;-78
2023/01/25 01:58:47;;;;;;;16.42;12.93;;;5.20;99.90;;;;;;5074177;28;20258;-78
2023/01/25 02:01:15;;;;;;;14.82;12.13;;;5.20;99.90;;;;;;5075110;28;20311;-79
2023/01/25 02:03:45;;;;;;;15.50;13.80;;;5.20;99.90;;;;;;5072375;28;20285;-77
2023/01/25 02:06:27;;;;;;;13.95;12.55;;;5.20;99.90;;;;;;5072654;28;20297;-77
2023/01/25 02:08:55;;;;;;;16.83;13.07;;;5.20;99.90;;;;;;5073062;28;20555;-77
2023/01/25 02:11:23;;;;;;;22.95;14.55;;;5.20;99.90;;;;;;5074136;28;20228;-77
2023/01/25 02:13:51;;;;;;;17.63;14.02;;;5.10;99.90;;;;;;5072906;28;20724;-76
2023/01/25 02:16:24;;;;;;;18.05;13.05;;;5.10;99.90;;;;;;5074383;28;20254;-77
2023/01/25 02:18:53;;;;;;;16.38;13.55;;;5.20;99.90;;;;;;5075315;28;20649;-77
2023/01/25 02:21:22;;;;;;;17.55;13.90;;;5.20;99.90;;;;;;5076722;28;20239;-77
2023/01/25 02:23:55;;;;;;;16.42;12.95;;;5.10;99.90;;;;;;5067536;28;20732;-77
2023/01/25 02:26:25;;;;;;;15.52;12.40;;;5.20;99.90;;;;;;5080574;28;20563;-77
2023/01/25 02:29:00;;;;;;;17.25;12.40;;;5.20;99.90;;;;;;5082704;28;20253;-78
2023/01/25 02:31:27;;;;;;;18.70;15.40;;;5.20;99.90;;;;;;5083355;28;20283;-77
2023/01/25 02:33:54;;;;;;;18.75;14.10;;;5.20;99.90;;;;;;5082521;28;20224;-77
2023/01/25 02:36:24;;;;;;;14.38;12.40;;;5.20;99.90;;;;;;5072424;28;20223;-78
2023/01/25 02:38:57;;;;;;;15.00;12.35;;;5.20;99.90;;;;;;5083291;28;20220;-78
2023/01/25 02:41:30;;;;;;;16.63;13.48;;;5.20;99.90;;;;;;5084519;28;20649;-76
2023/01/25 02:43:57;;;;;;;17.52;13.85;;;5.30;99.90;;;;;;5086823;28;20224;-76
2023/01/25 02:46:27;;;;;;;18.63;14.20;;;5.30;99.90;;;;;;5085790;28;20232;-77
2023/01/25 02:48:55;;;;;;;17.55;12.98;;;5.30;99.90;;;;;;5071850;28;20307;-76
2023/01/25 02:51:24;;;;;;;15.88;12.77;;;5.20;99.90;;;;;;5076046;28;20259;-77
2023/01/25 02:53:51;;;;;;;20.75;13.98;;;5.20;99.90;;;;;;5073795;28;20281;-77
2023/01/25 02:56:22;;;;;;;18.58;13.20;;;5.30;99.90;;;;;;5074888;28;20609;-77
2023/01/25 02:58:50;;;;;;;17.13;13.50;;;5.20;99.90;;;;;;5073902;28;20326;-78
2023/01/25 03:01:40;;;;;;;17.30;12.50;;;5.30;99.90;;;;;;5073089;28;20231;-77
2023/01/25 03:04:07;;;;;;;20.05;15.20;;;5.30;99.90;;;;;;5062372;28;20255;-77
2023/01/25 03:06:35;;;;;;;19.40;14.13;;;5.30;99.90;;;;;;5071738;28;20723;-78
2023/01/25 03:09:03;;;;;;;19.77;14.10;;;5.20;99.90;;;;;;5073349;28;20616;-78
2023/01/25 03:11:30;;;;;;;15.52;13.90;;;5.30;99.90;;;;;;5073816;28;20712;-78
2023/01/25 03:14:00;;;;;;;20.05;14.45;;;5.30;99.90;;;;;;5072580;28;20230;-77
2023/01/25 03:16:27;;;;;;;20.40;15.32;;;5.20;99.90;;;;;;5072934;28;20228;-77
2023/01/25 03:18:55;;;;;;;17.55;15.07;;;5.20;99.90;;;;;;5072002;28;20281;-78
2023/01/25 03:21:24;;;;;;;20.33;14.23;;;5.30;99.90;;;;;;5072972;28;20331;-78
2023/01/25 03:23:57;;;;;;;24.90;17.92;;;5.20;99.90;;;;;;5071336;28;20685;-79
2023/01/25 03:26:25;;;;;;;20.88;14.80;;;5.30;99.90;;;;;;5074131;28;20219;-79
2023/01/25 03:31:41;;;;;;;22.45;15.60;;;5.30;99.90;;;;;;5074888;28;20311;-79
2023/01/25 03:34:08;;;;;;;20.90;16.17;;;5.30;99.90;;;;;;5076169;28;20232;-79
2023/01/25 03:36:35;;;;;;;25.15;15.73;;;5.20;99.90;;;;;;5076559;28;20239;-79
2023/01/25 03:39:04;;;;;;;18.80;15.02;;;5.30;99.90;;;;;;5076842;28;20612;-79
2023/01/25 03:41:31;;;;;;;27.02;16.83;;;5.30;99.90;;;;;;5075918;28;20281;-79
2023/01/25 03:44:01;;;;;;;21.13;16.67;;;5.40;99.90;;;;;;5076384;28;20250;-79
2023/01/25 03:46:28;;;;;;;19.88;14.55;;;5.40;99.90;;;;;;5069663;28;20220;-79
2023/01/25 03:49:02;;;;;;;19.85;15.70;;;5.40;99.90;;;;;;5077067;28;20220;-79
2023/01/25 03:51:29;;;;;;;19.42;15.63;;;5.30;99.90;;;;;;5075890;28;20224;-78
2023/01/25 03:53:56;;;;;;;16.15;13.15;;;5.40;99.90;;;;;;5075661;28;20285;-78
2023/01/25 03:56:26;;;;;;;19.02;14.73;;;5.40;99.90;;;;;;5066527;28;20734;-78
2023/01/25 03:58:58;;;;;;;17.30;13.45;;;5.40;99.90;;;;;;5075783;28;20220;-77
2023/01/25 04:01:25;;;;;;;19.50;14.85;;;5.40;99.90;;;;;;5074383;28;20555;-77
2023/01/25 04:03:52;;;;;;;26.83;16.15;;;5.40;99.90;;;;;;5074411;28;20318;-79
2023/01/25 04:06:21;;;;;;;21.50;14.52;;;5.40;99.90;;;;;;5074941;28;20330;-79
2023/01/25 04:08:47;;;;;;;18.73;15.00;;;5.40;99.90;;;;;;5075821;28;20218;-79
2023/01/25 04:11:16;;;;;;;24.17;16.98;;;5.40;99.90;;;;;;5074618;28;20673;-79
2023/01/25 04:13:48;;;;;;;21.13;16.25;;;5.40;99.90;;;;;;5074423;28;20247;-77
2023/01/25 04:16:15;;;;;;;17.92;14.40;;;5.40;99.90;;;;;;5064957;28;20223;-78
2023/01/25 04:18:44;;;;;;;20.05;14.90;;;5.40;99.90;;;;;;5057633;28;20220;-78
2023/01/25 04:21:11;;;;;;;26.35;15.38;;;5.40;99.90;;;;;;5074556;28;20307;-79
2023/01/25 04:23:42;;;;;;;20.02;15.80;;;5.50;99.90;;;;;;5075049;28;20239;-78
2023/01/25 04:26:11;;;;;;;23.90;17.27;;;5.50;99.90;;;;;;5073570;28;20699;-79
2023/01/25 04:28:38;;;;;;;21.70;16.95;;;5.40;99.90;;;;;;5075101;28;20568;-79
2023/01/25 04:31:07;;;;;;;23.88;15.85;;;5.40;99.90;;;;;;5075213;28;20224;-78
2023/01/25 04:33:41;;;;;;;22.45;16.33;;;5.40;99.90;;;;;;5074257;28;20299;-78
2023/01/25 04:36:08;;;;;;;22.05;17.73;;;5.50;99.90;;;;;;5074263;28;20246;-77
2023/01/25 04:38:41;;;;;;;25.95;16.85;;;5.50;99.90;;;;;;5073222;28;20250;-77
2023/01/25 04:41:08;;;;;;;22.92;18.08;;;5.50;99.90;;;;;;5074618;28;20224;-78
2023/01/25 04:43:35;;;;;;;23.50;17.38;;;5.50;99.90;;;;;;5074376;28;20220;-79
2023/01/25 04:46:02;;;;;;;23.40;18.27;;;5.50;99.90;;;;;;5074540;28;20365;-77
2023/01/25 04:48:31;;;;;;;21.65;15.95;;;5.50;99.90;;;;;;5074013;28;20688;-77
2023/01/25 04:50:58;;;;;;;20.00;15.60;;;5.50;99.90;;;;;;5074961;28;20224;-77
2023/01/25 04:53:25;;;;;;;22.73;15.88;;;5.50;99.90;;;;;;5074261;28;20272;-78
2023/01/25 04:55:54;;;;;;;22.42;16.05;;;5.50;99.90;;;;;;5075148;28;20692;-79
2023/01/25 04:58:22;;;;;;;22.20;15.88;;;5.50;99.90;;;;;;5063930;28;20223;-79
2023/01/25 05:00:49;;;;;;;21.83;15.95;;;5.50;99.90;;;;;;5074768;28;20729;-79
2023/01/25 05:03:21;;;;;;;23.55;18.65;;;5.50;99.90;;;;;;5072671;28;20279;-79
2023/01/25 05:05:48;;;;;;;24.52;15.75;;;5.60;99.90;;;;;;5074584;28;20682;-78
2023/01/25 05:08:21;;;;;;;20.13;14.75;;;5.60;99.90;;;;;;5075218;28;20283;-78
2023/01/25 05:10:49;;;;;;;17.40;13.02;;;5.60;99.90;;;;;;5074913;28;20220;-77
2023/01/25 05:13:18;;;;;;;16.40;12.77;;;5.60;99.90;;;;;;5074612;28;20228;-77
2023/01/25 05:15:49;;;;;;;14.80;12.70;;;5.60;99.90;;;;;;5073953;28;20281;-77
2023/01/25 05:18:17;;;;;;;14.48;12.57;;;5.60;99.90;;;;;;5065379;28;20563;-77
2023/01/25 05:20:44;;;;;;;15.77;13.23;;;5.60;99.90;;;;;;5073267;28;20227;-77
2023/01/25 05:23:26;;;;;;;15.55;12.90;;;5.60;99.90;;;;;;5073846;28;20255;-77
2023/01/25 05:28:39;;;;;;;15.63;13.20;;;5.70;99.90;;;;;;5062271;28;20228;-77
2023/01/25 05:31:07;;;;;;;21.65;15.40;;;5.70;99.90;;;;;;5073051;28;20228;-77
2023/01/25 05:33:34;;;;;;;18.63;15.20;;;5.70;99.90;;;;;;5064888;28;20220;-77
2023/01/25 05:36:02;;;;;;;20.02;16.13;;;5.70;99.90;;;;;;5075853;28;20298;-79
2023/01/25 05:38:32;;;;;;;19.10;14.23;;;5.70;99.90;;;;;;5062049;28;20224;-79
2023/01/25 05:40:59;;;;;;;18.58;13.77;;;5.70;99.90;;;;;;5073276;28;20230;-78
2023/01/25 05:43:28;;;;;;;18.42;14.07;;;5.70;99.90;;;;;;5072121;28;20316;-79
2023/01/25 05:45:57;;;;;;;15.30;13.52;;;5.70;99.90;;;;;;5072635;28;20227;-79
2023/01/25 05:48:27;;;;;;;15.32;12.65;;;5.70;99.90;;;;;;5072408;28;20231;-79
2023/01/25 05:50:57;;;;;;;15.30;12.43;;;5.70;99.90;;;;;;5073292;28;20519;-78
2023/01/25 05:53:25;;;;;;;14.88;11.43;;;5.70;99.90;;;;;;5072667;28;20228;-78
2023/01/25 05:55:52;;;;;;;13.57;10.20;;;5.70;99.90;;;;;;5073728;28;20219;-77
2023/01/25 05:58:20;;;;;;;15.13;11.88;;;5.70;99.90;;;;;;5072859;28;20227;-77
2023/01/25 06:00:47;;;;;;;15.35;11.95;;;5.70;99.90;;;;;;5073277;28;20227;-77
2023/01/25 06:03:16;;;;;;;16.80;12.18;;;5.70;99.90;;;;;;5072550;28;20232;-78
2023/01/25 06:05:46;;;;;;;12.32;10.43;;;5.70;99.90;;;;;;5072910;28;20285;-78
2023/01/25 06:08:13;;;;;;;13.38;10.65;;;5.60;99.90;;;;;;5073975;28;20220;-78
2023/01/25 06:10:40;;;;;;;14.95;11.07;;;5.60;99.90;;;;;;5072795;28;20255;-79
2023/01/25 06:13:07;;;;;;;15.40;11.88;;;5.70;99.90;;;;;;5071944;28;20265;-78
2023/01/25 06:15:34;;;;;;;20.02;14.20;;;5.60;99.90;;;;;;5072348;28;20223;-77
2023/01/25 06:25:01;;;;;;;14.15;10.07;;;5.60;99.90;;;;;;5040379;28;20677;-78
2023/01/25 06:27:37;;;;;;;12.82;10.13;;;5.60;99.90;;;;;;5038260;28;20644;-78
2023/01/25 06:30:13;;;;;;;15.23;10.73;;;5.60;99.90;;;;;;5076451;28;20224;-78
2023/01/25 06:33:10;;;;;;;12.77;10.50;;;5.60;99.90;;;;;;5074933;28;20211;-78
2023/01/25 06:35:39;;;;;;;13.60;10.55;;;5.60;99.90;;;;;;5075106;28;20220;-78
2023/01/25 06:38:07;;;;;;;13.10;10.85;;;5.60;99.90;;;;;;5072886;28;20239;-79
2023/01/25 06:40:46;;;;;;;16.05;10.88;;;5.60;99.90;;;;;;5072089;28;20258;-79
2023/01/25 06:43:14;;;;;;;13.70;10.77;;;5.60;99.90;;;;;;5061312;28;20685;-78
2023/01/25 06:45:42;;;;;;;13.93;10.55;;;5.70;99.90;;;;;;5071267;28;20311;-78
2023/01/25 06:48:10;;;;;;;14.98;11.50;;;5.60;99.90;;;;;;5061678;28;20575;-78
2023/01/25 06:50:40;;;;;;;12.77;10.32;;;5.60;99.90;;;;;;5073106;28;20251;-79
2023/01/25 06:53:14;;;;;;;12.02;10.32;;;5.60;99.90;;;;;;5074978;28;20250;-79
2023/01/25 06:55:41;;;;;;;11.13;10.02;;;5.60;99.90;;;;;;5061974;28;20219;-78
2023/01/25 06:58:08;;;;;;;14.20;11.20;;;5.60;99.90;;;;;;5071908;28;20676;-79
2023/01/25 07:00:36;;;;;;;14.38;11.27;;;5.60;99.90;;;;;;5071525;28;20228;-78
2023/01/25 07:03:12;;;;;;;14.70;11.13;;;5.60;99.90;;;;;;5076750;28;20223;-79
2023/01/25 07:05:39;;;;;;;14.15;11.02;;;5.60;99.90;;;;;;5067326;28;20231;-78
2023/01/25 07:08:07;;;;;;;15.15;11.90;;;5.60;99.90;;;;;;5075836;28;20247;-79
2023/01/25 07:13:19;;;;;;;12.88;9.93;;;5.60;99.90;;;;;;5075359;28;20299;-79
2023/01/25 07:15:52;;;;;;;13.45;11.18;;;5.60;99.90;;;;;;5076542;28;20220;-78
2023/01/25 07:18:19;;;;;;;20.63;12.95;;;5.60;99.90;;;;;;5075133;28;20315;-78
2023/01/25 07:21:02;;;;;;;17.25;13.95;;;5.70;99.90;;;;;;5076529;28;20278;-79
2023/01/25 07:23:32;;;;;;;22.77;16.98;;;5.60;99.90;;;;;;5076047;28;20331;-79
2023/01/25 07:26:01;;;;;;;19.73;15.25;;;5.60;99.90;;;;;;5076489;28;20331;-79
2023/01/25 07:28:29;;;;;;;20.13;14.10;;;5.60;99.90;;;;;;5075852;28;20568;-77
2023/01/25 07:30:57;;;;;;;18.35;13.68;;;5.60;99.90;;;;;;5076067;28;20277;-77
2023/01/25 07:33:24;;;;;;;18.73;12.93;;;5.60;99.90;;;;;;5075669;28;20254;-77
2023/01/25 07:35:54;;;;;;;19.45;13.70;;;5.60;99.90;;;;;;5075081;28;20247;-78
2023/01/25 07:38:21;;;;;;;20.00;13.60;;;5.60;99.90;;;;;;5075844;28;20231;-77
2023/01/25 07:40:53;;;;;;;18.90;12.55;;;5.60;99.90;;;;;;5077102;28;20254;-79
2023/01/25 07:43:24;;;;;;;16.90;13.25;;;5.50;99.90;;;;;;5076228;28;20573;-79
2023/01/25 07:45:51;;;;;;;19.38;15.32;;;5.50;99.90;;;;;;5075314;28;20250;-79
2023/01/25 07:48:19;;;;;;;21.40;14.88;;;5.50;99.90;;;;;;5076259;28;20240;-77
2023/01/25 07:51:10;;;;;;;19.05;14.18;;;5.40;99.90;;;;;;5076373;28;20255;-80
2023/01/25 07:53:36;;;;;;;19.83;14.93;;;5.40;99.90;;;;;;5065664;28;20235;-78
2023/01/25 07:56:03;;;;;;;20.08;13.52;;;5.40;99.90;;;;;;5074803;28;20294;-79
2023/01/25 07:58:34;;;;;;;17.67;13.40;;;5.40;99.90;;;;;;5076234;28;20669;-80
2023/01/25 08:01:07;;;;;;;15.75;13.43;;;5.30;99.90;;;;;;5076978;28;20251;-80
2023/01/25 08:03:36;;;;;;;17.80;12.15;;;5.30;99.90;;;;;;5075765;28;20227;-80
2023/01/25 08:06:05;;;;;;;19.45;14.73;;;5.30;99.90;;;;;;5066829;28;20581;-79
2023/01/25 08:08:35;;;;;;;15.38;12.85;;;5.30;99.90;;;;;;5075774;28;20228;-80
2023/01/25 08:11:08;;;;;;;20.10;13.55;;;5.30;99.90;;;;;;5075508;28;20285;-80
2023/01/25 08:13:37;;;;;;;18.80;12.60;;;5.30;99.90;;;;;;5076048;28;20285;-81
2023/01/25 08:16:04;;;;;;;16.30;11.77;;;5.30;99.90;;;;;;5075767;28;20224;-80
2023/01/25 08:18:31;;;;;;;14.30;11.10;;;5.30;99.90;;;;;;5077695;28;20228;-80
2023/01/25 08:21:00;;;;;;;16.00;11.95;;;5.30;99.90;;;;;;5077992;28;20224;-80
2023/01/25 08:23:28;;;;;;;20.35;14.70;;;5.40;99.90;;;;;;5078743;28;20284;-80
2023/01/25 08:25:55;;;;;;;21.40;15.45;;;5.30;99.90;;;;;;5079040;28;20251;-80
2023/01/25 08:28:24;;;;;;;17.20;14.27;;;5.20;99.90;;;;;;5078588;28;20234;-80
2023/01/25 08:31:00;;;;;;;18.17;13.48;;;5.20;99.90;;;;;;5069576;28;20317;-80
2023/01/25 08:33:27;;;;;;;20.17;13.38;;;5.20;99.90;;;;;;5078866;28;20247;-80
2023/01/25 08:35:57;;;;;;;20.92;13.43;;;5.20;99.90;;;;;;5071004;28;20289;-80
2023/01/25 08:38:24;;;;;;;19.80;13.45;;;5.20;99.90;;;;;;5088482;28;20273;-79
2023/01/25 08:40:53;;;;;;;16.35;13.10;;;5.20;99.90;;;;;;5083006;28;20224;-79
2023/01/25 08:43:21;;;;;;;16.38;12.73;;;5.20;99.90;;;;;;5085554;28;20593;-79
2023/01/25 08:45:57;;;;;;;19.77;14.82;;;5.20;99.90;;;;;;5092326;28;20220;-79
2023/01/25 08:48:26;;;;;;;19.40;13.95;;;5.10;99.90;;;;;;5092110;28;20220;-79
2023/01/25 08:50:53;;;;;;;19.63;13.40;;;5.10;99.90;;;;;;5092171;28;20243;-80
2023/01/25 08:53:23;;;;;;;20.38;12.93;;;5.10;99.90;;;;;;5089675;28;20220;-78
2023/01/25 08:55:53;;;;;;;19.40;12.55;;;5.10;99.90;;;;;;5089522;28;20236;-77
2023/01/25 08:58:21;;;;;;;18.75;13.32;;;5.10;99.90;;;;;;5085342;28;20227;-78
2023/01/25 09:00:49;;;;;;;22.75;14.90;;;5.10;99.90;;;;;;5082369;28;20235;-77
2023/01/25 09:03:23;;;;;;;16.00;12.85;;;5.10;99.90;;;;;;5080426;28;20236;-78
2023/01/25 09:05:50;;;;;;;20.08;14.60;;;5.20;99.90;;;;;;5064367;28;20224;-77
2023/01/25 09:08:17;;;;;;;19.77;14.27;;;5.20;99.90;;;;;;5075247;28;20618;-79
2023/01/25 09:10:46;;;;;;;21.55;14.48;;;5.20;99.90;;;;;;5074852;28;20571;-77
2023/01/25 09:13:16;;;;;;;20.42;13.90;;;5.20;99.90;;;;;;5074699;28;20596;-79
2023/01/25 09:15:45;;;;;;;18.50;14.30;;;5.10;99.90;;;;;;5073179;28;20243;-78
2023/01/25 09:18:17;;;;;;;17.88;13.15;;;5.10;99.90;;;;;;5074378;28;20330;-79
2023/01/25 09:20:46;;;;;;;18.45;12.70;;;5.10;99.90;;;;;;5074318;28;20238;-77
2023/01/25 09:23:13;;;;;;;16.58;13.07;;;5.10;99.90;;;;;;5064906;28;20235;-78
2023/01/25 09:25:43;;;;;;;24.95;16.33;;;5.10;99.90;;;;;;5073459;28;20220;-77
2023/01/25 09:28:11;;;;;;;21.63;13.68;;;5.10;99.90;;;;;;5074908;28;20296;-79
2023/01/25 09:30:41;;;;;;;18.13;14.32;;;5.10;99.90;;;;;;5072569;28;20232;-78
2023/01/25 09:33:08;;;;;;;18.23;13.13;;;5.20;99.90;;;;;;5074826;28;20243;-79
2023/01/25 09:35:36;;;;;;;21.70;13.57;;;5.20;99.90;;;;;;5074462;28;20223;-78
2023/01/25 09:38:04;;;;;;;23.42;16.92;;;5.10;99.90;;;;;;5073884;28;20234;-78
2023/01/25 09:40:35;;;;;;;20.63;14.50;;;5.10;99.90;;;;;;5074064;28;20227;-78
2023/01/25 09:43:06;;;;;;;21.75;15.55;;;5.10;99.90;;;;;;5073184;28;20244;-77
2023/01/25 09:45:36;;;;;;;23.05;16.27;;;5.10;99.90;;;;;;5062808;28;20311;-77
2023/01/25 09:48:19;;;;;;;18.10;13.45;;;5.10;99.90;;;;;;5072890;28;20236;-78
2023/01/25 09:51:09;;;;;;;22.25;13.48;;;5.00;99.90;;;;;;5073790;28;20227;-78
2023/01/25 09:53:39;;;;;;;24.38;15.07;;;5.00;99.90;;;;;;5061635;28;20220;-77
2023/01/25 09:56:16;;;;;;;19.52;14.18;;;5.00;99.90;;;;;;5062489;28;20227;-78
2023/01/25 09:58:46;;;;;;;19.60;14.63;;;5.00;99.90;;;;;;5073847;28;20223;-77
2023/01/25 10:01:30;;;;;;;24.45;16.13;;;5.00;99.90;;;;;;5073483;28;20242;-78
2023/01/25 10:04:00;;;;;;;21.98;15.27;;;5.10;99.90;;;;;;5074641;28;20227;-79
2023/01/25 10:06:38;;;;;;;19.55;14.90;;;5.10;99.90;;;;;;5073560;28;20227;-79
2023/01/25 10:09:21;;;;;;;22.73;15.63;;;5.10;99.90;;;;;;5073816;28;20259;-79
2023/01/25 10:11:49;;;;;;;24.50;15.07;;;5.10;99.90;;;;;;5074260;28;20274;-77
2023/01/25 10:14:20;;;;;;;18.85;14.18;;;5.20;99.90;;;;;;5058558;28;20228;-78
2023/01/25 10:17:06;;;;;;;20.60;12.88;;;5.20;99.90;;;;;;5064369;28;20220;-78
2023/01/25 10:19:53;;;;;;;20.17;15.07;;;5.20;99.90;;;;;;5072155;28;20254;-79
2023/01/25 10:22:24;;;;;;;17.10;13.55;;;5.10;99.90;;;;;;5073715;28;20530;-78
2023/01/25 10:25:19;;;;;;;21.05;13.57;;;5.20;99.90;;;;;;5072387;28;20731;-78
2023/01/25 10:27:57;;;;;;;22.65;15.50;;;5.10;99.90;;;;;;5072867;28;20304;-79
2023/01/25 10:30:28;;;;;;;23.67;14.13;;;5.10;99.90;;;;;;5072380;28;20235;-78
2023/01/25 10:32:58;;;;;;;24.58;14.82;;;5.10;99.90;;;;;;5073036;28;20251;-79
2023/01/25 10:35:29;;;;;;;18.60;13.50;;;5.00;99.90;;;;;;5072911;28;20219;-79
2023/01/25 10:38:02;;;;;;;21.35;14.00;;;5.10;99.90;;;;;;5073077;28;20230;-77
2023/01/25 10:40:37;;;;;;;22.08;15.93;;;5.10;99.90;;;;;;5071554;28;20247;-77
2023/01/25 10:43:19;;;;;;;18.88;14.15;;;5.10;99.90;;;;;;5073451;28;20242;-79
2023/01/25 10:45:51;;;;;;;24.35;16.17;;;5.00;99.90;;;;;;5073096;28;20231;-78
2023/01/25 10:48:21;;;;;;;24.83;15.32;;;5.00;99.90;;;;;;5073942;28;20299;-78
2023/01/25 10:50:56;;;;;;;20.25;14.55;;;4.90;99.90;;;;;;5072925;28;20310;-78
2023/01/25 10:53:32;;;;;;;21.30;16.13;;;4.90;99.90;;;;;;5072526;28;20215;-78
2023/01/25 10:56:20;;;;;;;20.58;14.70;;;4.90;99.90;;;;;;5072569;28;20243;-80
2023/01/25 10:58:49;;;;;;;22.60;14.85;;;5.00;99.90;;;;;;5042281;28;20732;-79
2023/01/25 11:01:28;;;;;;;20.90;15.23;;;5.00;99.90;;;;;;5072387;28;20227;-78
2023/01/25 11:03:55;;;;;;;21.45;17.10;;;5.10;99.90;;;;;;5074957;28;20224;-80
2023/01/25 11:06:33;;;;;;;20.67;16.23;;;5.20;99.90;;;;;;5082302;28;20220;-77
2023/01/25 11:09:00;;;;;;;24.33;15.25;;;5.20;99.90;;;;;;5073042;28;20314;-78
2023/01/25 11:11:35;;;;;;;21.58;15.68;;;5.30;99.90;;;;;;5066906;28;20215;-78
2023/01/25 11:14:04;;;;;;;18.77;14.45;;;5.20;99.90;;;;;;5060376;28;20223;-78
2023/01/25 11:16:34;;;;;;;18.75;14.82;;;5.20;99.90;;;;;;5054724;28;20225;-78
2023/01/25 11:19:02;;;;;;;20.80;14.35;;;5.30;99.90;;;;;;5037707;28;20216;-80
2023/01/25 11:21:30;;;;;;;22.73;15.80;;;5.20;99.90;;;;;;5054331;28;20220;-80
2023/01/25 11:24:00;;;;;;;28.45;17.38;;;5.20;99.90;;;;;;5051544;28;20225;-80
2023/01/25 11:26:29;;;;;;;21.73;14.57;;;5.20;99.90;;;;;;5052466;28;20216;-78
2023/01/25 11:29:11;;;;;;;23.67;18.38;;;5.10;99.90;;;;;;5062502;28;20246;-80
2023/01/25 11:31:44;;;;;;;23.25;17.42;;;5.10;99.90;;;;;;5073163;28;20288;-78
2023/01/25 11:34:13;;;;;;;26.23;17.60;;;5.10;99.90;;;;;;5070612;28;20220;-78
2023/01/25 11:37:05;;;;;;;27.80;18.75;;;5.00;99.90;;;;;;5054642;28;20216;-77
2023/01/25 11:39:51;;;;;;;34.20;22.63;;;5.00;99.90;;;;;;5038464;28;20220;-77
2023/01/25 11:42:36;;;;;;;64.63;37.13;;;5.00;99.90;;;;;;5052751;28;20307;-78
2023/01/25 11:45:22;;;;;;;53.20;28.40;;;5.00;99.90;;;;;;5056491;28;20241;-78
2023/01/25 11:48:05;;;;;;;40.60;22.73;;;5.00;99.90;;;;;;5046715;28;20221;-78
2023/01/25 11:50:40;;;;;;;34.58;23.50;;;5.00;99.90;;;;;;5062059;28;20254;-79
2023/01/25 11:53:44;;;;;;;37.83;24.38;;;5.00;99.90;;;;;;5063958;28;20228;-77
2023/01/25 11:56:25;;;;;;;30.02;20.40;;;4.90;99.90;;;;;;5069884;28;20219;-77
2023/01/25 11:59:20;;;;;;;;;;;;;;;;;;;;;
2023/01/25 12:02:08;;;;;;;30.42;21.67;;;5.00;99.90;;;;;;5077735;28;20366;-77
2023/01/25 12:05:11;;;;;;;31.73;21.02;;;5.00;99.90;;;;;;5031859;28;20232;-79
2023/01/25 12:07:46;;;;;;;32.45;21.45;;;5.00;99.90;;;;;;4978926;28;20543;-77
2023/01/25 12:10:47;;;;;;;30.17;20.80;;;5.00;99.90;;;;;;4977646;28;20231;-79
2023/01/25 12:13:24;;;;;;;29.13;20.17;;;5.00;99.90;;;;;;4963686;28;20278;-79
2023/01/25 12:16:15;;;;;;;33.92;21.20;;;5.00;99.90;;;;;;4967865;28;20220;-78
2023/01/25 12:19:06;;;;;;;34.60;20.95;;;4.90;99.90;;;;;;4980285;28;20220;-78
2023/01/25 12:21:49;;;;;;;34.00;21.13;;;5.00;99.90;;;;;;4992197;28;20245;-78
2023/01/25 12:24:44;;;;;;;29.70;20.20;;;4.90;99.90;;;;;;4984583;28;20243;-79
2023/01/25 12:27:53;;;;;;;29.10;18.15;;;4.90;99.90;;;;;;4984503;28;20283;-78
2023/01/25 12:30:39;;;;;;;29.58;19.20;;;5.00;99.90;;;;;;4981005;28;20220;-78
2023/01/25 12:36:25;;;;;;;28.52;19.33;;;5.10;99.90;;;;;;4966459;28;20251;-78
2023/01/25 12:39:04;;;;;;;30.42;20.58;;;5.10;99.90;;;;;;5004835;28;20298;-78
2023/01/25 12:41:40;;;;;;;31.80;19.67;;;5.00;99.90;;;;;;4970750;28;20255;-79
2023/01/25 12:44:16;;;;;;;28.42;18.60;;;5.00;99.90;;;;;;4943643;28;20227;-77
2023/01/25 12:46:53;;;;;;;32.38;19.75;;;5.00;99.90;;;;;;4967826;28;20284;-78
2023/01/25 12:49:43;;;;;;;31.40;19.95;;;5.00;99.90;;;;;;4955578;28;20281;-80
2023/01/25 12:52:22;;;;;;;32.30;21.08;;;5.00;99.90;;;;;;4957539;28;20576;-79
2023/01/25 12:54:53;;;;;;;36.15;24.60;;;5.10;99.90;;;;;;4965058;28;20230;-77
2023/01/25 12:57:24;;;;;;;34.35;23.83;;;5.00;99.90;;;;;;5045389;28;20228;-77
2023/01/25 13:00:01;;;;;;;28.05;19.55;;;5.10;99.90;;;;;;5030304;28;20232;-77
2023/01/25 13:02:50;;;;;;;37.45;20.90;;;5.00;99.90;;;;;;4962004;28;20281;-78
2023/01/25 13:05:43;;;;;;;36.28;20.27;;;5.00;99.90;;;;;;5020295;28;20224;-79
2023/01/25 13:08:21;;;;;;;38.67;21.50;;;5.00;99.90;;;;;;5054840;28;20714;-79
2023/01/25 13:11:02;;;;;;;35.72;20.52;;;5.10;99.90;;;;;;5057492;28;20307;-79
2023/01/25 13:13:32;;;;;;;29.10;19.00;;;5.00;99.90;;;;;;5074276;28;20685;-79
2023/01/25 13:16:33;;;;;;;27.23;18.65;;;5.00;99.90;;;;;;5064611;28;20615;-79
2023/01/25 13:19:01;;;;;;;33.90;20.80;;;4.90;99.90;;;;;;5067833;28;20295;-79
2023/01/25 13:21:47;;;;;;;29.98;17.55;;;5.00;99.90;;;;;;5064541;28;20692;-79